Kezdőlap
METAR-TAF:

METAR-TAF

Repülőterek :

Adak Island, Alaszka, Amerikai Egyesült Államok

földrajzi szélesség: 51-52-40N, földrajzi hosszúság: 176-38-45W, magasság: 6 m

Jelenlegi meteorológiai megfigyelések

A jelentés 31 perccel ezelõtt készült, 20:56 UTC
Észak-északnyugati szél 14 kt
Hőmérséklet 5°C
Páratartalom 75%
Légköri nyomás 1012 hPa
Látótávolság: 16.1 km
Kevés felhő 1800 lábon
Szakadozott felhőzet 2300 lábon

METAR: PADK 292056Z AUTO 34014KT 10SM FEW018 BKN023 05/01 A2988 RMK AO2 SLP118 T00500011 50007 $

Idő: 13:27 (21:27 UTC)


TAF: hiányzik

Meteorológiai megfigyelések és előrejelzések több, mint 4000 repülőtéren (METAR és TAF jelentéseket).

A térképen piros és sárga pontok jelzik az elérhető meteorológiai állomásokat.

Mozgassa az egeret a pont fölött, hogy megjelenjen az állomás neve.

Azután kattintson az időjárási megfigyelések és előrejelzések megtekintéséhez.

A térkép megváltoztatása: kattintson a fekete keresztel jelölt zöld gombra ráközelítéshez, a vonallal jelölt zöld gombra távolításhoz, vagy a zöld nyilakra a szomszédos térképek eléréséhez.


METAR-TAF: